Time;durP1;ratioP1;P1;durP2;ratioP2;P2;SDS_P1;SDS_P2;PMS_P1;PMS_P2;Temp;Humidity;BMP_temperature;BMP_pressure;BME280_temperature;BME280_humidity;BME280_pressure;Samples;Min_cycle;Max_cycle;Signal;HPM_P1;HPM_P2
2021/07/27 00:01:42;;;;;;;35.63;23.45;;;19.20;99.90;;;;;;5073421;28;20044;-86
2021/07/27 00:04:08;;;;;;;36.13;23.98;;;19.20;99.90;;;;;;5057256;28;20133;-87
2021/07/27 00:06:35;;;;;;;33.22;22.38;;;19.10;99.90;;;;;;5057456;28;20039;-86
2021/07/27 00:09:03;;;;;;;34.60;24.67;;;19.00;99.90;;;;;;5072531;28;20127;-87
2021/07/27 00:11:30;;;;;;;34.95;23.00;;;19.00;99.90;;;;;;5057276;28;20029;-88
2021/07/27 00:14:00;;;;;;;32.72;20.85;;;18.90;99.90;;;;;;5073347;28;20068;-87
2021/07/27 00:16:27;;;;;;;32.47;22.40;;;18.80;99.90;;;;;;5054270;28;20464;-87
2021/07/27 00:18:54;;;;;;;33.97;22.08;;;18.80;99.90;;;;;;5038981;28;20044;-89
2021/07/27 00:21:22;;;;;;;36.17;24.10;;;18.80;99.90;;;;;;5053777;28;20037;-88
2021/07/27 00:23:49;;;;;;;31.25;19.92;;;18.80;99.90;;;;;;5052797;28;20033;-89
2021/07/27 00:26:23;;;;;;;27.63;18.92;;;18.80;99.90;;;;;;5037382;28;20091;-89
2021/07/27 00:28:50;;;;;;;35.97;24.63;;;18.80;99.90;;;;;;5053199;28;20052;-89
2021/07/27 00:31:20;;;;;;;32.60;22.83;;;18.80;99.90;;;;;;5038096;28;20033;-88
2021/07/27 00:33:48;;;;;;;41.40;26.45;;;18.90;99.90;;;;;;5037412;28;20112;-89
2021/07/27 00:36:15;;;;;;;40.72;26.40;;;18.90;99.90;;;;;;5055072;28;20414;-88
2021/07/27 00:38:44;;;;;;;41.08;26.10;;;18.90;99.90;;;;;;5035268;28;20128;-88
2021/07/27 00:41:10;;;;;;;36.35;23.58;;;18.90;99.90;;;;;;5036170;28;20093;-85
2021/07/27 00:43:38;;;;;;;36.92;25.05;;;18.90;99.90;;;;;;5052775;28;20065;-88
2021/07/27 00:46:05;;;;;;;37.83;24.77;;;18.80;99.90;;;;;;5052800;28;20144;-88
2021/07/27 00:48:32;;;;;;;39.03;26.50;;;18.90;99.90;;;;;;5035734;28;20057;-88
2021/07/27 00:51:01;;;;;;;41.63;29.20;;;18.90;99.90;;;;;;5053029;28;20073;-88
2021/07/27 00:53:28;;;;;;;42.47;27.10;;;18.80;99.90;;;;;;5037414;28;20132;-87
2021/07/27 00:55:55;;;;;;;42.47;28.80;;;18.80;99.90;;;;;;5036372;28;20049;-87
2021/07/27 00:58:23;;;;;;;38.25;25.52;;;18.80;99.90;;;;;;5037503;28;20038;-88
2021/07/27 01:00:52;;;;;;;38.80;26.20;;;18.80;99.90;;;;;;5036620;28;20046;-86
2021/07/27 01:03:18;;;;;;;40.40;28.02;;;18.80;99.90;;;;;;5053876;28;20037;-87
2021/07/27 01:05:46;;;;;;;46.13;30.05;;;18.80;99.90;;;;;;5054276;28;20040;-88
2021/07/27 01:08:13;;;;;;;42.92;28.52;;;18.80;99.90;;;;;;5053673;28;20037;-88
2021/07/27 01:10:40;;;;;;;48.60;32.25;;;18.80;99.90;;;;;;5036211;28;20037;-87
2021/07/27 01:13:06;;;;;;;47.17;29.27;;;18.80;99.90;;;;;;5052993;28;20033;-88
2021/07/27 01:15:33;;;;;;;47.72;30.70;;;18.80;99.90;;;;;;5062751;28;20084;-87
2021/07/27 01:18:04;;;;;;;40.58;26.83;;;18.80;99.90;;;;;;5072026;28;20033;-87
2021/07/27 01:20:48;;;;;;;43.30;26.50;;;18.80;99.90;;;;;;5054847;28;20033;-85
2021/07/27 01:39:47;;;;;;;53.88;33.67;;;18.70;99.90;;;;;;5055936;28;20040;-86
2021/07/27 01:42:18;;;;;;;51.50;34.25;;;18.70;99.90;;;;;;5055097;28;20033;-87
2021/07/27 01:44:48;;;;;;;53.70;34.67;;;18.70;99.90;;;;;;5072281;28;20048;-88
2021/07/27 01:47:19;;;;;;;48.85;31.58;;;18.70;99.90;;;;;;5054014;28;20041;-87
2021/07/27 01:49:48;;;;;;;39.60;27.08;;;18.70;99.90;;;;;;5036668;28;20542;-88
2021/07/27 01:52:15;;;;;;;40.53;27.00;;;18.60;99.90;;;;;;5070231;28;20436;-87
2021/07/27 01:54:41;;;;;;;37.53;26.23;;;18.70;99.90;;;;;;5078742;28;20037;-86
2021/07/27 01:57:11;;;;;;;37.10;24.60;;;18.60;99.90;;;;;;5084703;28;20045;-86
2021/07/27 01:59:59;;;;;;;42.35;26.33;;;18.70;99.90;;;;;;5085245;28;20056;-86
2021/07/27 02:02:26;;;;;;;40.50;28.40;;;18.70;99.90;;;;;;5087049;28;20056;-86
2021/07/27 02:04:52;;;;;;;36.50;24.77;;;18.60;99.90;;;;;;5038052;28;20033;-87
2021/07/27 02:07:18;;;;;;;37.20;24.70;;;18.60;99.90;;;;;;5072542;28;20033;-87
2021/07/27 02:09:47;;;;;;;38.13;25.55;;;18.60;99.90;;;;;;5056153;28;20037;-88
2021/07/27 02:12:22;;;;;;;40.85;27.60;;;18.60;99.90;;;;;;5071650;28;20041;-87
2021/07/27 02:15:05;;;;;;;43.13;29.00;;;18.60;99.90;;;;;;5053205;28;20103;-87
2021/07/27 02:17:35;;;;;;;38.15;26.17;;;18.60;99.90;;;;;;5061118;28;20053;-86
2021/07/27 02:20:08;;;;;;;42.67;27.33;;;18.60;99.90;;;;;;5074469;28;20044;-86
2021/07/27 02:22:38;;;;;;;38.97;26.25;;;18.60;99.90;;;;;;5073280;28;20112;-87
2021/07/27 02:25:05;;;;;;;41.30;28.70;;;18.60;99.90;;;;;;5073725;28;20096;-87
2021/07/27 02:27:34;;;;;;;44.42;29.42;;;18.60;99.90;;;;;;5076561;28;20044;-87
2021/07/27 02:30:01;;;;;;;46.90;30.58;;;18.60;99.90;;;;;;5044177;28;20048;-87
2021/07/27 02:32:28;;;;;;;44.50;29.60;;;18.60;99.90;;;;;;5060768;28;20135;-86
2021/07/27 02:34:54;;;;;;;45.05;28.27;;;18.50;99.90;;;;;;5080097;28;20066;-87
2021/07/27 02:37:24;;;;;;;43.50;29.48;;;18.40;99.90;;;;;;5062327;28;20063;-87
2021/07/27 02:39:50;;;;;;;51.60;34.22;;;18.40;99.90;;;;;;5061371;28;20564;-86
2021/07/27 02:42:16;;;;;;;52.92;35.80;;;18.30;99.90;;;;;;5078736;28;20170;-86
2021/07/27 02:44:48;;;;;;;47.17;31.95;;;18.20;99.90;;;;;;5061001;28;20040;-85
2021/07/27 02:47:14;;;;;;;52.78;35.97;;;18.10;99.90;;;;;;5078309;28;20048;-87
2021/07/27 02:49:40;;;;;;;48.38;32.33;;;18.10;99.90;;;;;;5043764;28;20032;-87
2021/07/27 02:52:08;;;;;;;43.55;30.77;;;18.10;99.90;;;;;;5060056;28;20123;-86
2021/07/27 02:54:39;;;;;;;47.40;31.17;;;18.00;99.90;;;;;;5076851;28;20041;-87
2021/07/27 02:57:05;;;;;;;41.17;30.27;;;17.90;99.90;;;;;;5060784;28;20042;-87
2021/07/27 02:59:33;;;;;;;44.28;29.63;;;17.90;99.90;;;;;;5077627;28;20078;-86
2021/07/27 03:01:59;;;;;;;40.13;26.67;;;17.90;99.90;;;;;;5060379;28;20056;-87
2021/07/27 03:04:25;;;;;;;35.55;25.25;;;17.90;99.90;;;;;;5044415;28;20033;-87
2021/07/27 03:06:54;;;;;;;33.17;24.10;;;17.90;99.90;;;;;;5061053;28;20135;-87
2021/07/27 03:09:29;;;;;;;35.95;25.20;;;17.90;99.90;;;;;;5060974;28;20053;-88
2021/07/27 03:11:55;;;;;;;39.38;27.80;;;17.90;99.90;;;;;;5061150;28;20029;-87
2021/07/27 03:14:21;;;;;;;42.58;28.48;;;18.00;99.90;;;;;;5044681;28;20040;-86
2021/07/27 03:16:48;;;;;;;44.35;31.13;;;18.00;99.90;;;;;;5060277;28;20037;-86
2021/07/27 03:19:20;;;;;;;41.15;28.67;;;18.10;99.90;;;;;;5078610;28;20062;-87
2021/07/27 03:21:48;;;;;;;35.67;26.58;;;18.10;99.90;;;;;;5060269;28;20037;-88
2021/07/27 03:24:15;;;;;;;38.90;26.38;;;18.20;99.90;;;;;;5043663;28;20437;-88
2021/07/27 03:26:43;;;;;;;38.13;27.55;;;18.20;99.90;;;;;;5043250;28;20443;-88
2021/07/27 03:29:09;;;;;;;41.70;29.13;;;18.30;99.90;;;;;;5059975;28;20037;-88
2021/07/27 03:31:37;;;;;;;41.22;29.15;;;18.30;99.90;;;;;;5060511;28;20392;-88
2021/07/27 03:34:03;;;;;;;36.72;26.02;;;18.30;99.90;;;;;;5060081;28;20044;-87
2021/07/27 03:36:32;;;;;;;39.72;27.38;;;18.30;99.90;;;;;;5060689;28;20071;-87
2021/07/27 03:38:59;;;;;;;39.63;27.50;;;18.30;99.90;;;;;;5059007;28;20067;-88
2021/07/27 03:41:25;;;;;;;41.00;28.20;;;18.30;99.90;;;;;;5060276;28;20144;-88
2021/07/27 03:43:52;;;;;;;37.40;26.90;;;18.30;99.90;;;;;;5075771;28;20475;-88
2021/07/27 03:46:19;;;;;;;43.08;29.85;;;18.30;99.90;;;;;;5057697;28;20037;-87
2021/07/27 03:48:46;;;;;;;41.15;28.42;;;18.30;99.90;;;;;;5057541;28;20123;-86
2021/07/27 03:51:16;;;;;;;35.92;26.05;;;18.20;99.90;;;;;;5074261;28;20032;-86
2021/07/27 03:53:43;;;;;;;42.03;30.23;;;18.20;99.90;;;;;;5075125;28;20050;-87
2021/07/27 03:56:13;;;;;;;50.38;34.40;;;18.20;99.90;;;;;;5057379;28;20082;-88
2021/07/27 03:58:43;;;;;;;46.63;32.15;;;18.20;99.90;;;;;;5075191;28;20033;-88
2021/07/27 04:01:14;;;;;;;40.65;28.17;;;18.10;99.90;;;;;;5057908;28;20561;-87
2021/07/27 04:03:42;;;;;;;40.30;29.70;;;18.10;99.90;;;;;;5073969;28;20040;-88
2021/07/27 04:06:08;;;;;;;43.50;29.83;;;18.10;99.90;;;;;;5074159;28;20395;-87
2021/07/27 04:08:40;;;;;;;34.33;24.83;;;18.10;99.90;;;;;;5073320;28;20538;-87
2021/07/27 04:11:12;;;;;;;33.53;24.25;;;18.10;99.90;;;;;;5056737;28;20182;-86
2021/07/27 04:13:45;;;;;;;30.50;23.00;;;18.20;99.90;;;;;;5073240;28;20487;-88
2021/07/27 04:16:15;;;;;;;;;;;18.10;99.90;;;;;;5057030;28;20052;-87
2021/07/27 04:18:47;;;;;;;30.60;22.48;;;18.10;99.90;;;;;;5056657;28;19912;-87
2021/07/27 04:21:13;;;;;;;43.42;31.58;;;18.10;99.90;;;;;;5074593;28;20032;-85
2021/07/27 04:23:40;;;;;;;47.92;34.88;;;18.10;99.90;;;;;;5056312;28;20184;-87
2021/07/27 04:26:08;;;;;;;40.70;29.08;;;18.10;99.90;;;;;;5073816;28;20082;-87
2021/07/27 04:28:36;;;;;;;38.88;28.40;;;18.10;99.90;;;;;;5073875;28;20040;-87
2021/07/27 04:31:03;;;;;;;40.30;29.58;;;18.00;99.90;;;;;;5073515;28;20040;-87
2021/07/27 04:33:38;;;;;;;40.92;28.88;;;18.00;99.90;;;;;;5055200;28;20036;-88
2021/07/27 04:36:09;;;;;;;39.58;28.13;;;17.90;99.90;;;;;;5042095;28;20029;-88
2021/07/27 04:38:37;;;;;;;36.42;28.25;;;17.90;99.90;;;;;;5029328;28;20045;-88
2021/07/27 04:41:05;;;;;;;32.08;24.40;;;17.80;99.90;;;;;;5056985;28;20132;-88
2021/07/27 04:43:53;;;;;;;30.92;22.38;;;17.80;99.90;;;;;;5050617;28;20503;-89
2021/07/27 04:46:29;;;;;;;28.20;20.63;;;17.90;99.90;;;;;;5021451;28;20033;-88
2021/07/27 04:49:05;;;;;;;26.20;20.23;;;17.90;99.90;;;;;;5038847;28;20500;-87
2021/07/27 04:51:35;;;;;;;28.45;21.40;;;17.90;99.90;;;;;;5053659;28;20037;-88
2021/07/27 04:54:15;;;;;;;29.52;21.48;;;17.90;99.90;;;;;;5037259;28;20539;-87
2021/07/27 04:56:46;;;;;;;27.50;20.40;;;18.00;99.90;;;;;;5022066;28;20091;-88
2021/07/27 04:59:19;;;;;;;30.30;22.38;;;17.90;99.90;;;;;;5063359;28;20049;-88
2021/07/27 05:01:51;;;;;;;27.05;20.88;;;18.00;99.90;;;;;;5051866;28;20045;-88
2021/07/27 05:04:21;;;;;;;25.58;19.42;;;18.00;99.90;;;;;;5047826;28;20036;-88
2021/07/27 05:06:51;;;;;;;26.35;19.05;;;18.00;99.90;;;;;;5049657;28;20119;-87
2021/07/27 05:09:19;;;;;;;25.92;19.73;;;18.00;99.90;;;;;;5015866;28;20366;-87
2021/07/27 05:11:47;;;;;;;27.75;20.23;;;18.00;99.90;;;;;;5035550;28;20512;-88
2021/07/27 05:14:18;;;;;;;27.15;20.55;;;18.00;99.90;;;;;;5039526;28;20041;-87
2021/07/27 05:16:46;;;;;;;32.08;23.02;;;18.00;99.90;;;;;;5023838;28;20358;-87
2021/07/27 05:19:13;;;;;;;27.52;20.70;;;18.00;99.90;;;;;;5029004;28;20132;-88
2021/07/27 05:21:43;;;;;;;30.63;23.17;;;18.00;99.90;;;;;;5027551;28;20046;-87
2021/07/27 05:24:11;;;;;;;27.80;22.48;;;18.00;99.90;;;;;;4995822;28;20040;-87
2021/07/27 05:26:45;;;;;;;27.13;21.10;;;18.00;99.90;;;;;;5007406;28;20125;-86
2021/07/27 05:29:13;;;;;;;32.25;23.90;;;18.00;99.90;;;;;;5028988;28;20037;-87
2021/07/27 05:31:41;;;;;;;28.48;22.08;;;18.00;99.90;;;;;;5030078;28;20044;-87
2021/07/27 05:34:09;;;;;;;29.65;23.13;;;18.00;99.90;;;;;;5025982;28;20060;-87
2021/07/27 05:36:35;;;;;;;28.23;21.90;;;18.00;99.90;;;;;;5032312;28;20045;-86
2021/07/27 05:39:04;;;;;;;29.17;21.30;;;18.00;99.90;;;;;;5028805;28;20056;-86
2021/07/27 05:41:33;;;;;;;27.83;22.38;;;18.00;99.90;;;;;;5047986;28;20525;-88
2021/07/27 05:44:01;;;;;;;26.58;20.58;;;18.00;99.90;;;;;;5048228;28;20037;-87
2021/07/27 05:46:31;;;;;;;29.10;21.95;;;18.00;99.90;;;;;;5013734;28;20076;-88
2021/07/27 05:48:58;;;;;;;30.13;21.88;;;18.10;99.90;;;;;;5031614;28;20048;-89
2021/07/27 05:51:26;;;;;;;28.52;20.65;;;18.10;99.90;;;;;;5047194;28;20450;-88
2021/07/27 05:53:53;;;;;;;24.35;18.98;;;18.20;99.90;;;;;;5031542;28;20397;-88
2021/07/27 05:56:23;;;;;;;28.15;21.02;;;18.30;99.90;;;;;;5027014;28;20104;-88
2021/07/27 05:59:10;;;;;;;27.80;22.45;;;18.30;99.90;;;;;;5042041;28;20409;-87
2021/07/27 06:01:36;;;;;;;31.75;23.15;;;18.40;99.90;;;;;;5044012;28;20086;-89
2021/07/27 06:04:04;;;;;;;27.33;21.08;;;18.40;99.90;;;;;;5021956;28;20429;-90
2021/07/27 06:06:31;;;;;;;26.83;20.10;;;18.50;99.90;;;;;;5031584;28;20041;-89
2021/07/27 06:09:07;;;;;;;30.40;22.63;;;18.50;99.90;;;;;;5014702;28;20304;-88
2021/07/27 06:11:39;;;;;;;23.27;18.98;;;18.60;99.90;;;;;;5028412;28;20524;-88
2021/07/27 06:14:08;;;;;;;23.90;18.10;;;18.70;99.90;;;;;;5027027;28;20091;-88
2021/07/27 06:16:45;;;;;;;25.70;20.70;;;18.80;99.90;;;;;;5039564;28;20058;-88
2021/07/27 06:19:32;;;;;;;24.27;18.45;;;18.90;99.90;;;;;;4983751;28;20099;-89
2021/07/27 06:22:02;;;;;;;22.73;18.23;;;18.90;99.90;;;;;;5044653;28;20140;-89
2021/07/27 06:24:38;;;;;;;23.45;18.77;;;19.00;99.90;;;;;;5041984;28;20075;-87
2021/07/27 06:27:08;;;;;;;30.00;22.02;;;19.10;99.90;;;;;;5038507;28;20045;-88
2021/07/27 06:29:45;;;;;;;25.02;19.52;;;19.10;99.90;;;;;;5018726;28;20041;-88
2021/07/27 06:32:18;;;;;;;23.15;18.60;;;19.20;99.90;;;;;;5018263;28;20492;-89
2021/07/27 06:34:50;;;;;;;22.65;18.17;;;19.30;99.90;;;;;;5034312;28;20033;-89
2021/07/27 06:37:18;;;;;;;20.88;15.40;;;19.40;99.90;;;;;;5032148;28;20048;-88
2021/07/27 06:39:44;;;;;;;22.00;17.88;;;19.40;99.90;;;;;;5034330;28;20131;-88
2021/07/27 06:42:13;;;;;;;24.42;19.35;;;19.50;99.90;;;;;;5034475;28;20068;-89
2021/07/27 06:44:44;;;;;;;23.73;18.83;;;19.60;99.90;;;;;;5067680;28;20044;-88
2021/07/27 06:47:32;;;;;;;25.15;19.58;;;19.70;99.90;;;;;;5037856;28;20044;-89
2021/07/27 06:50:19;;;;;;;22.98;18.40;;;19.70;99.90;;;;;;5054076;28;20037;-89
2021/07/27 06:52:48;;;;;;;20.23;16.75;;;19.70;99.90;;;;;;5069228;28;20037;-88
2021/07/27 06:55:19;;;;;;;22.83;16.80;;;19.80;99.90;;;;;;5033774;28;20037;-88
2021/07/27 06:57:51;;;;;;;20.48;16.88;;;19.80;99.90;;;;;;5051421;28;20052;-88
2021/07/27 07:00:18;;;;;;;19.67;15.70;;;19.90;99.90;;;;;;5051345;28;20396;-88
2021/07/27 07:02:46;;;;;;;23.55;18.38;;;20.00;99.90;;;;;;5051004;28;20041;-89
2021/07/27 07:05:24;;;;;;;24.40;19.90;;;20.00;99.90;;;;;;5047361;28;20029;-89
2021/07/27 07:07:55;;;;;;;24.15;18.58;;;20.00;99.90;;;;;;5051962;28;20040;-90
2021/07/27 07:10:25;;;;;;;22.88;18.67;;;20.10;99.90;;;;;;5052274;28;20076;-88
2021/07/27 07:12:56;;;;;;;21.23;16.48;;;20.10;99.90;;;;;;5035504;28;20029;-88
2021/07/27 07:15:23;;;;;;;22.67;17.23;;;20.30;99.90;;;;;;5050741;28;20061;-89
2021/07/27 07:17:53;;;;;;;20.40;16.73;;;20.40;99.90;;;;;;5037327;28;20030;-88
2021/07/27 07:20:24;;;;;;;22.95;18.55;;;20.60;99.90;;;;;;5034630;28;20492;-88
2021/07/27 07:22:54;;;;;;;20.73;17.90;;;20.70;99.90;;;;;;5036881;28;20045;-90
2021/07/27 07:25:46;;;;;;;20.00;16.17;;;20.70;99.90;;;;;;5055724;28;20127;-90
2021/07/27 07:28:24;;;;;;;19.00;15.13;;;20.80;99.90;;;;;;5055912;28;20059;-89
2021/07/27 07:30:50;;;;;;;18.73;16.40;;;20.80;99.90;;;;;;5055422;28;20084;-89
2021/07/27 07:33:22;;;;;;;22.45;18.80;;;20.70;99.90;;;;;;5056193;28;20040;-89
2021/07/27 07:35:54;;;;;;;23.23;18.48;;;20.70;99.90;;;;;;5049514;28;20125;-89
2021/07/27 07:38:21;;;;;;;23.25;19.33;;;20.60;99.90;;;;;;5033107;28;20045;-89
2021/07/27 07:40:59;;;;;;;21.08;18.05;;;20.70;99.90;;;;;;5015616;28;20077;-89
2021/07/27 07:43:27;;;;;;;19.02;16.10;;;20.70;99.90;;;;;;5032950;28;20042;-91
2021/07/27 07:46:14;;;;;;;23.40;20.30;;;20.70;99.90;;;;;;5045879;28;20117;-87
2021/07/27 07:49:03;;;;;;;19.40;16.23;;;20.90;99.90;;;;;;5036039;28;20043;-88
2021/07/27 07:51:51;;;;;;;24.42;19.98;;;21.00;99.90;;;;;;5038526;28;20107;-89
2021/07/27 07:54:26;;;;;;;22.02;18.33;;;21.00;99.90;;;;;;5043689;28;20110;-88
2021/07/27 07:56:58;;;;;;;25.67;19.50;;;21.00;99.90;;;;;;5072504;28;20109;-89
2021/07/27 07:59:29;;;;;;;22.10;17.60;;;21.00;99.90;;;;;;5057681;28;20123;-89
2021/07/27 08:01:59;;;;;;;25.73;22.05;;;20.90;99.90;;;;;;5069676;28;20106;-88
2021/07/27 08:04:37;;;;;;;21.85;17.48;;;20.90;99.90;;;;;;5044113;28;20090;-89
2021/07/27 08:07:09;;;;;;;26.35;20.95;;;20.80;99.90;;;;;;5039969;28;20048;-89
2021/07/27 08:09:37;;;;;;;22.80;19.80;;;20.70;99.90;;;;;;5054038;28;20093;-90
2021/07/27 08:12:06;;;;;;;24.48;19.67;;;20.70;99.90;;;;;;5036965;28;20084;-89
2021/07/27 08:14:45;;;;;;;25.58;21.15;;;20.60;99.90;;;;;;5037460;28;20064;-89
2021/07/27 08:17:17;;;;;;;25.50;20.35;;;20.50;99.90;;;;;;5076421;28;20104;-89
2021/07/27 08:19:48;;;;;;;28.53;22.47;;;20.50;99.90;;;;;;5075539;28;20134;-89
2021/07/27 08:22:24;;;;;;;25.33;19.95;;;20.40;99.90;;;;;;5075974;28;20295;-89
2021/07/27 08:24:52;;;;;;;24.20;18.88;;;20.40;99.90;;;;;;5072676;28;20032;-90
2021/07/27 08:27:20;;;;;;;19.98;16.15;;;20.60;99.90;;;;;;5039139;28;20040;-91
2021/07/27 08:29:49;;;;;;;21.30;17.10;;;20.80;99.90;;;;;;5073229;28;20051;-90
2021/07/27 08:32:26;;;;;;;22.35;19.85;;;21.00;99.90;;;;;;5057234;28;20471;-89
2021/07/27 08:35:00;;;;;;;22.17;18.42;;;21.10;99.90;;;;;;5063271;28;20045;-90
2021/07/27 08:37:34;;;;;;;21.05;17.02;;;21.30;99.90;;;;;;5057811;28;20060;-90
2021/07/27 08:40:07;;;;;;;21.10;18.17;;;21.40;99.90;;;;;;5040761;28;20047;-91
2021/07/27 08:42:54;;;;;;;21.30;17.48;;;21.50;99.90;;;;;;5038819;28;20041;-91
2021/07/27 08:45:26;;;;;;;24.77;20.45;;;21.60;99.90;;;;;;5046161;28;20098;-90
2021/07/27 08:48:07;;;;;;;22.02;17.58;;;21.80;99.90;;;;;;5058261;28;20040;-92
2021/07/27 08:50:43;;;;;;;19.85;16.42;;;21.90;99.90;;;;;;5076827;28;20058;-90
2021/07/27 08:53:19;;;;;;;21.90;17.60;;;21.90;99.90;;;;;;5076466;28;20032;-89
2021/07/27 08:56:24;;;;;;;22.23;18.55;;;21.90;99.90;;;;;;5062215;28;20068;-90
2021/07/27 08:58:53;;;;;;;20.90;16.98;;;22.00;99.90;;;;;;5041257;28;20045;-90
2021/07/27 09:01:30;;;;;;;20.42;18.25;;;22.00;99.90;;;;;;5039092;28;20397;-90
2021/07/27 09:03:59;;;;;;;17.83;15.90;;;22.00;99.90;;;;;;5037465;28;20033;-88
2021/07/27 09:06:32;;;;;;;18.70;15.77;;;22.00;99.90;;;;;;5055919;28;20033;-90
2021/07/27 09:09:11;;;;;;;19.73;16.08;;;22.00;99.90;;;;;;5055431;28;20044;-89
2021/07/27 09:11:49;;;;;;;18.73;16.17;;;22.10;99.90;;;;;;5055472;28;20519;-89
2021/07/27 09:14:25;;;;;;;15.55;13.88;;;22.20;99.90;;;;;;5056924;28;20473;-89
2021/07/27 09:16:58;;;;;;;18.88;16.85;;;22.30;99.90;;;;;;5091090;28;20056;-90
2021/07/27 09:19:50;;;;;;;;;;;22.40;99.90;;;;;;5059008;28;20048;-89
2021/07/27 09:22:18;;;;;;;16.23;13.65;;;22.50;99.90;;;;;;5075048;28;19954;-90
2021/07/27 09:24:48;;;;;;;16.63;14.85;;;22.80;99.90;;;;;;5070317;28;20029;-89
2021/07/27 09:27:29;;;;;;;14.98;13.23;;;23.00;99.90;;;;;;5021937;28;20065;-89
2021/07/27 09:30:00;;;;;;;17.73;15.63;;;23.10;99.90;;;;;;5022639;28;20065;-90
2021/07/27 09:32:47;;;;;;;16.58;13.52;;;23.10;99.90;;;;;;5021982;28;20041;-90
2021/07/27 09:35:15;;;;;;;12.88;10.45;;;23.10;99.90;;;;;;5054029;28;20069;-91
2021/07/27 09:37:50;;;;;;;15.30;13.70;;;23.20;99.90;;;;;;5039642;28;20103;-89
2021/07/27 09:40:17;;;;;;;12.68;11.32;;;23.40;99.90;;;;;;5040930;28;20041;-90
2021/07/27 09:42:47;;;;;;;12.05;10.77;;;23.60;99.90;;;;;;5039917;28;20036;-91
2021/07/27 09:45:57;;;;;;;15.27;11.20;;;24.50;99.90;;;;;;5041285;28;20123;-89
2021/07/27 09:48:36;;;;;;;12.00;10.25;;;24.90;99.90;;;;;;5074382;28;20548;-88
2021/07/27 09:51:30;;;;;;;9.98;8.98;;;25.50;99.90;;;;;;5078670;28;20032;-93
2021/07/27 09:54:06;;;;;;;11.93;10.73;;;25.60;99.90;;;;;;5057856;28;20135;-90
2021/07/27 09:56:54;;;;;;;10.05;8.82;;;25.40;99.90;;;;;;5057029;28;20036;-89
2021/07/27 09:59:48;;;;;;;11.77;10.57;;;25.10;99.90;;;;;;5074048;28;20044;-89
2021/07/27 10:02:21;;;;;;;9.93;8.90;;;24.90;99.90;;;;;;5074130;28;20037;-89
2021/07/27 10:05:20;;;;;;;13.43;9.50;;;24.60;99.90;;;;;;5062850;28;20045;-91
2021/07/27 10:08:01;;;;;;;11.65;10.00;;;24.60;99.90;;;;;;5071814;28;20044;-89
2021/07/27 10:10:39;;;;;;;11.25;9.65;;;24.50;99.90;;;;;;5055807;28;20462;-91
2021/07/27 10:13:35;;;;;;;12.73;11.43;;;24.50;99.90;;;;;;5059304;28;20036;-91
2021/07/27 10:16:07;;;;;;;11.68;10.45;;;24.30;99.90;;;;;;5055853;28;20053;-89
2021/07/27 10:18:41;;;;;;;10.88;9.77;;;24.20;99.90;;;;;;5035483;28;20075;-93
2021/07/27 10:21:30;;;;;;;11.30;9.77;;;24.20;99.90;;;;;;5035973;28;20053;-88
2021/07/27 10:24:23;;;;;;;11.82;10.35;;;24.30;99.90;;;;;;5031659;28;20049;-90
2021/07/27 10:26:50;;;;;;;;;;;24.30;99.90;;;;;;5048922;28;20120;-91
2021/07/27 10:29:55;;;;;;;11.15;10.05;;;24.70;99.90;;;;;;5051180;28;19912;-90
2021/07/27 10:32:29;;;;;;;12.40;10.75;;;25.10;99.90;;;;;;5051536;28;20380;-91
2021/07/27 10:34:58;;;;;;;12.95;11.07;;;25.00;99.90;;;;;;5034988;28;20099;-91
2021/07/27 10:37:36;;;;;;;12.73;10.15;;;24.60;99.90;;;;;;5054579;28;20048;-88
2021/07/27 10:40:07;;;;;;;10.73;9.65;;;24.50;99.90;;;;;;5040185;28;20128;-89
2021/07/27 10:42:44;;;;;;;11.40;10.13;;;24.40;99.90;;;;;;5034583;28;20150;-89
2021/07/27 10:45:20;;;;;;;10.48;9.40;;;24.30;99.90;;;;;;5037405;28;20075;-91
2021/07/27 10:47:58;;;;;;;12.13;9.70;;;24.30;99.90;;;;;;5074024;28;20040;-89
2021/07/27 10:50:29;;;;;;;13.65;11.38;;;24.10;99.90;;;;;;5074474;28;20033;-90
2021/07/27 10:53:10;;;;;;;13.27;11.88;;;23.90;99.90;;;;;;5059138;28;20036;-91
2021/07/27 10:55:37;;;;;;;12.65;11.35;;;23.60;99.90;;;;;;5055247;28;20106;-90
2021/07/27 10:58:08;;;;;;;10.77;9.57;;;23.50;99.90;;;;;;5058093;28;20082;-90
2021/07/27 11:00:43;;;;;;;10.95;9.88;;;23.50;99.90;;;;;;5073480;28;20033;-92
2021/07/27 11:03:12;;;;;;;9.80;8.80;;;23.50;99.90;;;;;;5039054;28;20037;-92
2021/07/27 11:05:43;;;;;;;12.32;10.82;;;23.70;99.90;;;;;;5043694;28;20040;-90
2021/07/27 11:08:26;;;;;;;12.98;11.68;;;23.60;99.90;;;;;;5075927;28;20033;-90
2021/07/27 11:11:17;;;;;;;14.68;13.07;;;23.60;99.90;;;;;;5060211;28;20387;-90
2021/07/27 11:13:56;;;;;;;12.52;11.23;;;23.50;99.90;;;;;;5066864;28;20025;-88
2021/07/27 11:16:23;;;;;;;11.65;10.52;;;23.40;99.90;;;;;;5051554;28;20417;-92
2021/07/27 11:18:52;;;;;;;12.38;10.75;;;23.70;99.90;;;;;;5051373;28;20045;-92
2021/07/27 11:21:21;;;;;;;11.02;9.98;;;24.40;99.90;;;;;;5036358;28;20043;-90
2021/07/27 11:23:57;;;;;;;10.60;9.20;;;25.00;99.90;;;;;;5051970;28;20053;-90
2021/07/27 11:26:37;;;;;;;11.63;10.38;;;25.30;99.90;;;;;;5048817;28;20037;-91
2021/07/27 11:29:33;;;;;;;13.43;10.70;;;25.30;99.90;;;;;;5038821;28;20056;-90
2021/07/27 11:32:11;;;;;;;9.68;8.45;;;24.90;99.90;;;;;;5017373;28;20069;-91
2021/07/27 11:34:43;;;;;;;12.63;10.40;;;24.60;99.90;;;;;;5044589;28;20127;-88
2021/07/27 11:37:12;;;;;;;12.65;11.07;;;24.30;99.90;;;;;;5069592;28;20041;-88
2021/07/27 11:39:43;;;;;;;13.68;8.98;;;23.90;99.90;;;;;;5072801;28;20052;-91
2021/07/27 11:42:09;;;;;;;7.15;5.57;;;23.10;99.90;;;;;;5038766;28;20037;-92
2021/07/27 11:44:35;;;;;;;5.97;4.10;;;21.80;99.90;;;;;;5062463;28;20128;-93
2021/07/27 11:47:01;;;;;;;5.32;3.20;;;20.70;99.90;;;;;;5049942;28;20045;-94
2021/07/27 11:49:29;;;;;;;3.85;2.67;;;19.90;99.90;;;;;;5064602;28;20033;-92
2021/07/27 11:52:03;;;;;;;4.22;2.20;;;19.40;99.90;;;;;;5057063;28;20038;-95
2021/07/27 11:54:31;;;;;;;2.80;2.00;;;19.10;99.90;;;;;;5058176;28;20025;-94
2021/07/27 11:56:57;;;;;;;3.55;2.28;;;18.80;99.90;;;;;;5061461;28;20061;-92
2021/07/27 11:59:27;;;;;;;7.75;3.28;;;18.70;99.90;;;;;;5057016;28;20505;-93
2021/07/27 12:01:56;;;;;;;3.80;2.35;;;18.70;99.90;;;;;;5040732;28;20056;-90
2021/07/27 12:04:24;;;;;;;4.10;2.42;;;18.60;99.90;;;;;;5039359;28;20108;-91
2021/07/27 12:06:54;;;;;;;5.78;2.17;;;18.60;99.90;;;;;;5053291;28;20033;-90
2021/07/27 12:09:22;;;;;;;4.43;2.80;;;18.70;99.90;;;;;;5052751;28;20036;-90
2021/07/27 12:11:54;;;;;;;3.70;2.85;;;18.80;99.90;;;;;;5055461;28;20030;-91
2021/07/27 12:14:20;;;;;;;5.10;3.13;;;19.00;99.90;;;;;;5052715;28;20469;-92
2021/07/27 12:16:47;;;;;;;4.00;2.92;;;19.10;99.90;;;;;;5035107;28;20136;-91
2021/07/27 12:19:13;;;;;;;5.50;3.92;;;19.40;99.90;;;;;;5051712;28;20045;-91
2021/07/27 12:21:39;;;;;;;5.55;3.45;;;19.80;99.90;;;;;;5051214;28;20092;-91
2021/07/27 12:24:06;;;;;;;5.35;3.45;;;20.10;99.90;;;;;;5051406;28;20026;-92
2021/07/27 12:26:36;;;;;;;4.78;3.30;;;20.20;99.90;;;;;;5052380;28;20555;-90
2021/07/27 12:29:03;;;;;;;4.85;3.38;;;20.20;99.90;;;;;;5034602;28;20049;-91
2021/07/27 12:31:29;;;;;;;5.05;3.35;;;20.30;99.90;;;;;;5028210;28;20065;-91
2021/07/27 12:33:55;;;;;;;6.00;3.58;;;20.30;99.90;;;;;;5047833;28;20037;-91
2021/07/27 12:36:27;;;;;;;4.15;2.97;;;20.40;99.90;;;;;;5051404;28;20159;-91
2021/07/27 12:38:52;;;;;;;5.30;3.17;;;20.70;99.90;;;;;;5054720;28;20044;-92
2021/07/27 12:41:20;;;;;;;5.05;2.72;;;20.90;99.90;;;;;;5041749;28;20041;-90
2021/07/27 12:43:46;;;;;;;4.35;2.83;;;21.20;99.90;;;;;;5055733;28;20099;-90
2021/07/27 12:46:14;;;;;;;4.15;3.13;;;21.50;99.90;;;;;;5055339;28;20049;-90
2021/07/27 12:48:43;;;;;;;4.40;3.15;;;22.10;99.90;;;;;;5054820;28;20037;-90
2021/07/27 12:51:15;;;;;;;5.40;3.47;;;22.70;99.90;;;;;;5055052;28;20052;-90
2021/07/27 12:53:43;;;;;;;4.67;3.30;;;23.20;99.90;;;;;;5036872;28;20037;-89
2021/07/27 12:56:11;;;;;;;5.10;3.53;;;23.40;99.90;;;;;;5052794;28;20355;-90
2021/07/27 12:58:37;;;;;;;3.75;2.90;;;23.70;99.90;;;;;;5039190;28;20041;-90
2021/07/27 13:01:04;;;;;;;3.92;2.75;;;24.20;99.90;;;;;;5054207;28;20113;-89
2021/07/27 13:03:29;;;;;;;5.43;2.80;;;24.80;99.90;;;;;;5054111;28;20033;-87
2021/07/27 13:06:16;;;;;;;4.65;3.45;;;25.60;99.90;;;;;;5051283;28;20057;-90
2021/07/27 13:09:03;;;;;;;5.47;3.50;;;26.20;99.90;;;;;;5039481;28;20025;-89
2021/07/27 13:11:31;;;;;;;4.63;3.42;;;26.50;99.90;;;;;;5056166;28;20037;-91